Terminal Aerodrome Forecast
Issued by NWS Billings, MT

Home | Current Version | Previous Version | Text Only | Print | Product List | Glossary On
Versions: 1 2 3 4 5 6 7 8 9 10 11 12 13 14 15 16 17
000
FTUS45 KBYZ 132325
TAFBIL
TAF
KBIL 132325Z 1400/1424 VRB06KT P6SM VCSH SCT025 BKN050
     FM140400 28011KT P6SM SCT040
     FM140700 30014G20KT P6SM SCT045
     FM141700 30015G25KT P6SM SCT045=

USA.gov is the U.S. government's official web portal to all federal, state and local government web resources and services.